Terminal Aerodrome Forecast
Issued by NWS

Home | Current Version | Previous Version | Text Only | Print | Product List | Glossary On
Versions: 1 2 3 4 5 6 7 8 9 10 11 12 13 14 15 16 17 18 19 20 21
000
FTUS43 KIND 040800 AAA
TAFHUF
TAF AMD
KHUF 040806Z 0408/0506 32006KT P6SM BKN015 OVC050
      TEMPO 0408/0411 6SM -RASN BR
     FM041100 32010KT P6SM BKN015 OVC050
     FM041800 34012KT 3SM -SN BR OVC010=

USA.gov is the U.S. government's official web portal to all federal, state and local government web resources and services.